createdAt,value
2022-08-28T00:00:45.375Z,17.62
2022-08-28T00:01:45.542Z,17.62
2022-08-28T00:02:45.732Z,17.63
2022-08-28T00:03:45.737Z,17.62
2022-08-28T00:04:46.008Z,17.62
2022-08-28T00:05:46.027Z,17.62
2022-08-28T00:06:46.124Z,17.61
2022-08-28T00:07:48.006Z,17.61
2022-08-28T00:08:46.394Z,17.60
2022-08-28T00:09:46.545Z,17.58
2022-08-28T00:10:46.584Z,17.56
2022-08-28T00:11:46.687Z,17.56
2022-08-28T00:12:46.834Z,17.56
2022-08-28T00:13:46.944Z,17.56
2022-08-28T00:14:47.123Z,17.56
2022-08-28T00:15:47.175Z,17.56
2022-08-28T00:16:47.463Z,17.55
2022-08-28T00:17:47.422Z,17.54
2022-08-28T00:18:47.512Z,17.52
2022-08-28T00:19:47.693Z,17.50
2022-08-28T00:20:47.800Z,17.49
2022-08-28T00:21:47.893Z,17.49
2022-08-28T00:22:48.058Z,17.49
2022-08-28T00:23:48.154Z,17.48
2022-08-28T00:24:48.372Z,17.48
2022-08-28T00:25:48.371Z,17.48
2022-08-28T00:26:48.479Z,17.47
2022-08-28T00:27:48.594Z,17.46
2022-08-28T00:28:48.693Z,17.46
2022-08-28T00:29:49.040Z,17.45
2022-08-28T00:30:48.991Z,17.45
2022-08-28T00:31:49.120Z,17.45
2022-08-28T00:32:49.271Z,17.44
2022-08-28T00:33:49.391Z,17.45
2022-08-28T00:34:49.544Z,17.45
2022-08-28T00:35:49.588Z,17.44
2022-08-28T00:36:49.679Z,17.43
2022-08-28T00:37:49.859Z,17.42
2022-08-28T00:38:49.970Z,17.40
2022-08-28T00:39:50.099Z,17.39
2022-08-28T00:40:50.294Z,17.38
2022-08-28T00:41:50.439Z,17.38
2022-08-28T00:42:51.439Z,17.38
2022-08-28T00:43:50.588Z,17.38
2022-08-28T00:44:50.693Z,17.37
2022-08-28T00:45:50.809Z,17.35
2022-08-28T00:46:51.087Z,17.34
2022-08-28T00:47:51.045Z,17.34
2022-08-28T00:48:51.130Z,17.33
2022-08-28T00:49:51.330Z,17.33
2022-08-28T00:50:51.354Z,17.32
2022-08-28T00:51:51.465Z,17.31
2022-08-28T00:52:51.567Z,17.29
2022-08-28T00:53:52.664Z,17.28
2022-08-28T00:54:58.922Z,17.26
2022-08-28T00:55:52.925Z,17.24
2022-08-28T00:56:52.028Z,17.23
2022-08-28T00:57:52.133Z,17.22
2022-08-28T00:58:52.359Z,17.21
2022-08-28T00:59:52.358Z,17.19
2022-08-28T01:00:52.507Z,17.18
2022-08-28T01:01:52.591Z,17.16
2022-08-28T01:02:52.735Z,17.15
2022-08-28T01:03:52.806Z,17.14
2022-08-28T01:04:52.977Z,17.13
2022-08-28T01:05:53.144Z,17.12
2022-08-28T01:06:53.196Z,17.11
2022-08-28T01:07:53.285Z,17.10
2022-08-28T01:08:53.398Z,17.10
2022-08-28T01:09:53.525Z,17.09
2022-08-28T01:10:53.723Z,17.07
2022-08-28T01:11:53.763Z,17.06
2022-08-28T01:12:53.914Z,17.05
2022-08-28T01:13:54.002Z,17.04
2022-08-28T01:14:54.152Z,17.03
2022-08-28T01:15:54.492Z,17.02
2022-08-28T01:16:54.414Z,17.02
2022-08-28T01:17:54.532Z,17.01
2022-08-28T01:18:54.633Z,16.99
2022-08-28T01:19:54.743Z,16.99
2022-08-28T01:20:55.052Z,16.98
2022-08-28T01:21:54.934Z,16.97
2022-08-28T01:22:55.103Z,16.97
2022-08-28T01:23:55.193Z,16.96
2022-08-28T01:24:55.361Z,16.96
2022-08-28T01:25:55.552Z,16.95
2022-08-28T01:26:55.602Z,16.93
2022-08-28T01:27:55.712Z,16.92
2022-08-28T01:28:55.822Z,16.91
2022-08-28T01:29:55.921Z,16.89
2022-08-28T01:30:56.138Z,16.86
2022-08-28T01:31:56.151Z,16.85
2022-08-28T01:32:56.248Z,16.85
2022-08-28T01:33:56.402Z,16.84
2022-08-28T01:34:56.531Z,16.82
2022-08-28T01:35:56.792Z,16.80
2022-08-28T01:36:56.790Z,16.78
2022-08-28T01:37:56.903Z,16.77
2022-08-28T01:38:57.003Z,16.76
2022-08-28T01:39:57.161Z,16.75
2022-08-28T01:40:57.393Z,16.73
2022-08-28T01:41:57.388Z,16.71
2022-08-28T01:42:57.499Z,16.70
2022-08-28T01:43:57.599Z,16.69
2022-08-28T01:44:57.747Z,16.69
2022-08-28T01:45:58.001Z,16.67
2022-08-28T01:46:58.029Z,16.66
2022-08-28T01:47:58.082Z,16.65
2022-08-28T01:48:58.171Z,16.65
2022-08-28T01:49:58.339Z,16.66
2022-08-28T01:50:58.438Z,16.66
2022-08-28T01:51:58.687Z,16.66
2022-08-28T01:52:58.717Z,16.65
2022-08-28T01:53:58.812Z,16.64
2022-08-28T01:54:58.905Z,16.63
2022-08-28T01:55:59.050Z,16.62
2022-08-28T01:56:59.267Z,16.61
2022-08-28T01:57:59.349Z,16.60
2022-08-28T01:58:59.437Z,16.61
2022-08-28T01:59:59.597Z,16.60
2022-08-28T02:00:59.707Z,16.60
2022-08-28T02:02:00.030Z,16.59
2022-08-28T02:03:00.008Z,16.58
2022-08-28T02:04:00.095Z,16.57
2022-08-28T02:05:00.197Z,16.56
2022-08-28T02:06:00.286Z,16.55
2022-08-28T02:07:00.506Z,16.54
2022-08-28T02:08:00.655Z,16.52
2022-08-28T02:09:00.646Z,16.52
2022-08-28T02:10:00.815Z,16.51
2022-08-28T02:11:00.896Z,16.51
2022-08-28T02:12:01.115Z,16.50
2022-08-28T02:13:01.273Z,16.49
2022-08-28T02:14:01.254Z,16.48
2022-08-28T02:15:01.393Z,16.46
2022-08-28T02:16:01.569Z,16.46
2022-08-28T02:17:01.655Z,16.45
2022-08-28T02:18:01.824Z,16.44
2022-08-28T02:19:01.861Z,16.43
2022-08-28T02:20:02.004Z,16.40
2022-08-28T02:21:02.164Z,16.38
2022-08-28T02:22:02.253Z,16.37
2022-08-28T02:23:02.475Z,16.35
2022-08-28T02:24:02.513Z,16.33
2022-08-28T02:25:02.664Z,16.31
2022-08-28T02:26:02.811Z,16.29
2022-08-28T02:27:02.971Z,16.27
2022-08-28T02:28:03.183Z,16.26
2022-08-28T02:29:03.177Z,16.25
2022-08-28T02:30:03.314Z,16.23
2022-08-28T02:31:03.515Z,16.21
2022-08-28T02:32:03.603Z,16.19
2022-08-28T02:33:03.911Z,16.18
2022-08-28T02:34:03.800Z,16.16
2022-08-28T02:35:04.121Z,16.15
2022-08-28T02:36:05.052Z,16.13
2022-08-28T02:37:04.181Z,16.11
2022-08-28T02:38:04.359Z,16.09
2022-08-28T02:39:04.450Z,16.07
2022-08-28T02:40:04.655Z,16.06
2022-08-28T02:41:04.710Z,16.04
2022-08-28T02:42:04.800Z,16.03
2022-08-28T02:43:04.989Z,16.01
2022-08-28T02:44:05.133Z,16.00
2022-08-28T02:45:05.177Z,15.98
2022-08-28T02:46:05.373Z,15.97
2022-08-28T02:47:05.449Z,15.95
2022-08-28T02:48:05.619Z,15.94
2022-08-28T02:49:06.740Z,15.92
2022-08-28T02:50:05.768Z,15.91
2022-08-28T02:51:05.908Z,15.90
2022-08-28T02:52:06.157Z,15.90
2022-08-28T02:53:06.198Z,15.89
2022-08-28T02:54:06.429Z,15.88
2022-08-28T02:55:06.431Z,15.87
2022-08-28T02:56:06.538Z,15.87
2022-08-28T02:57:06.657Z,15.86
2022-08-28T02:58:06.954Z,15.85
2022-08-28T02:59:06.890Z,15.84
2022-08-28T03:00:07.067Z,15.84
2022-08-28T03:01:07.235Z,15.83
2022-08-28T03:02:07.497Z,15.82
2022-08-28T03:03:07.514Z,15.82
2022-08-28T03:04:07.645Z,15.82
2022-08-28T03:05:07.748Z,15.82
2022-08-28T03:06:07.805Z,15.83
2022-08-28T03:07:07.927Z,15.83
2022-08-28T03:08:08.076Z,15.83
2022-08-28T03:09:08.186Z,15.82
2022-08-28T03:10:08.246Z,15.81
2022-08-28T03:11:08.359Z,15.80
2022-08-28T03:12:08.465Z,15.80
2022-08-28T03:13:08.634Z,15.80
2022-08-28T03:14:08.714Z,15.80
2022-08-28T03:15:08.814Z,15.80
2022-08-28T03:16:08.962Z,15.79
2022-08-28T03:17:09.083Z,15.79
2022-08-28T03:18:11.317Z,15.79
2022-08-28T03:19:09.331Z,15.78
2022-08-28T03:20:09.423Z,15.77
2022-08-28T03:21:09.609Z,15.77
2022-08-28T03:22:09.714Z,15.77
2022-08-28T03:23:09.834Z,15.77
2022-08-28T03:24:09.942Z,15.78
2022-08-28T03:25:11.073Z,15.77
2022-08-28T03:26:10.272Z,15.76
2022-08-28T03:27:10.274Z,15.74
2022-08-28T03:28:10.396Z,15.73
2022-08-28T03:29:10.552Z,15.73
2022-08-28T03:30:10.609Z,15.73
2022-08-28T03:31:10.794Z,15.72
2022-08-28T03:32:10.831Z,15.72
2022-08-28T03:33:10.982Z,15.71
2022-08-28T03:34:11.161Z,15.71
2022-08-28T03:35:11.210Z,15.70
2022-08-28T03:36:11.330Z,15.70
2022-08-28T03:37:11.530Z,15.69
2022-08-28T03:38:11.796Z,15.69
2022-08-28T03:39:11.710Z,15.69
2022-08-28T03:40:11.920Z,15.69
2022-08-28T03:41:12.010Z,15.69
2022-08-28T03:42:12.108Z,15.69
2022-08-28T03:43:12.229Z,15.69
2022-08-28T03:44:12.340Z,15.68
2022-08-28T03:45:12.540Z,15.68
2022-08-28T03:46:12.597Z,15.68
2022-08-28T03:47:12.831Z,15.68
2022-08-28T03:48:12.933Z,15.67
2022-08-28T03:49:12.941Z,15.66
2022-08-28T03:50:13.047Z,15.65
2022-08-28T03:51:13.158Z,15.64
2022-08-28T03:52:13.358Z,15.64
2022-08-28T03:53:13.402Z,15.65
2022-08-28T03:54:13.510Z,15.64
2022-08-28T03:55:13.606Z,15.64
2022-08-28T03:56:14.067Z,15.64
2022-08-28T03:57:13.960Z,15.64
2022-08-28T03:58:18.991Z,15.63
2022-08-28T03:59:15.158Z,15.62
2022-08-28T04:00:14.266Z,15.60
2022-08-28T04:01:14.466Z,15.59
2022-08-28T04:02:14.476Z,15.58
2022-08-28T04:03:14.686Z,15.58
2022-08-28T04:04:14.765Z,15.57
2022-08-28T04:05:14.901Z,15.57
2022-08-28T04:06:15.115Z,15.56
2022-08-28T04:07:15.226Z,15.55
2022-08-28T04:08:15.215Z,15.55
2022-08-28T04:09:15.303Z,15.53
2022-08-28T04:10:15.455Z,15.52
2022-08-28T04:11:15.546Z,15.51
2022-08-28T04:12:15.735Z,15.50
2022-08-28T04:13:15.844Z,15.49
2022-08-28T04:14:15.945Z,15.49
2022-08-28T04:15:16.043Z,15.49
2022-08-28T04:16:16.154Z,15.48
2022-08-28T04:17:16.293Z,15.48
2022-08-28T04:18:16.354Z,15.47
2022-08-28T04:19:16.464Z,15.47
2022-08-28T04:20:16.612Z,15.45
2022-08-28T04:21:16.683Z,15.44
2022-08-28T04:22:16.863Z,15.43
2022-08-28T04:23:16.963Z,15.42
2022-08-28T04:24:17.082Z,15.42
2022-08-28T04:25:17.202Z,15.43
2022-08-28T04:26:17.293Z,15.43
2022-08-28T04:27:17.527Z,15.43
2022-08-28T04:28:17.591Z,15.43
2022-08-28T04:29:17.708Z,15.43
2022-08-28T04:30:17.821Z,15.42
2022-08-28T04:31:17.968Z,15.41
2022-08-28T04:32:19.130Z,15.40
2022-08-28T04:33:18.180Z,15.39
2022-08-28T04:34:18.379Z,15.38
2022-08-28T04:35:18.444Z,15.37
2022-08-28T04:36:18.550Z,15.37
2022-08-28T04:37:18.651Z,15.37
2022-08-28T04:38:18.770Z,15.37
2022-08-28T04:39:18.939Z,15.37
2022-08-28T04:40:19.057Z,15.37
2022-08-28T04:41:19.130Z,15.37
2022-08-28T04:42:19.240Z,15.36
2022-08-28T04:43:19.361Z,15.33
2022-08-28T04:44:19.469Z,15.30
2022-08-28T04:45:19.643Z,15.26
2022-08-28T04:46:19.751Z,15.25
2022-08-28T04:47:19.798Z,15.23
2022-08-28T04:48:19.906Z,15.22
2022-08-28T04:49:19.998Z,15.22
2022-08-28T04:50:20.225Z,15.22
2022-08-28T04:51:20.216Z,15.22
2022-08-28T04:52:20.329Z,15.23
2022-08-28T04:53:20.457Z,15.24
2022-08-28T04:54:20.568Z,15.24
2022-08-28T04:55:24.396Z,15.25
2022-08-28T04:56:21.777Z,15.25
2022-08-28T04:57:20.876Z,15.25
2022-08-28T04:58:23.644Z,15.24
2022-08-28T04:59:21.097Z,15.23
2022-08-28T05:00:21.280Z,15.23
2022-08-28T05:01:21.422Z,15.23
2022-08-28T05:02:21.467Z,15.23
2022-08-28T05:03:21.546Z,15.23
2022-08-28T05:04:21.667Z,15.22
2022-08-28T05:05:21.846Z,15.21
2022-08-28T05:06:21.886Z,15.20
2022-08-28T05:07:22.006Z,15.19
2022-08-28T05:08:22.125Z,15.19
2022-08-28T05:09:22.228Z,15.20
2022-08-28T05:10:22.396Z,15.20
2022-08-28T05:11:34.452Z,15.20
2022-08-28T05:12:23.564Z,15.19
2022-08-28T05:13:22.664Z,15.19
2022-08-28T05:14:22.763Z,15.20
2022-08-28T05:15:23.004Z,15.20
2022-08-28T05:16:23.019Z,15.20
2022-08-28T05:17:23.155Z,15.19
2022-08-28T05:18:23.253Z,15.20
2022-08-28T05:19:23.374Z,15.20
2022-08-28T05:20:23.553Z,15.21
2022-08-28T05:21:23.622Z,15.20
2022-08-28T05:22:23.731Z,15.20
2022-08-28T05:23:24.199Z,15.19
2022-08-28T05:24:23.993Z,15.19
2022-08-28T05:25:24.136Z,15.19
2022-08-28T05:26:27.078Z,15.19
2022-08-28T05:27:24.322Z,15.20
2022-08-28T05:28:24.506Z,15.20
2022-08-28T05:29:24.601Z,15.21
2022-08-28T05:30:24.790Z,15.22
2022-08-28T05:31:24.885Z,15.24
2022-08-28T05:32:25.041Z,15.25
2022-08-28T05:33:25.086Z,15.25
2022-08-28T05:34:25.172Z,15.25
2022-08-28T05:35:25.349Z,15.24
2022-08-28T05:36:25.756Z,15.22
2022-08-28T05:37:25.613Z,15.22
2022-08-28T05:38:25.661Z,15.22
2022-08-28T05:39:25.780Z,15.22
2022-08-28T05:40:25.971Z,15.22
2022-08-28T05:41:26.016Z,15.21
2022-08-28T05:42:28.842Z,15.21
2022-08-28T05:43:26.259Z,15.19
2022-08-28T05:44:26.351Z,15.17
2022-08-28T05:45:26.657Z,15.14
2022-08-28T05:46:26.547Z,15.13
2022-08-28T05:47:26.689Z,15.13
2022-08-28T05:48:26.838Z,15.13
2022-08-28T05:49:26.959Z,15.12
2022-08-28T05:50:27.127Z,15.13
2022-08-28T05:51:27.614Z,15.14
2022-08-28T05:52:27.307Z,15.15
2022-08-28T05:53:27.424Z,15.16
2022-08-28T05:54:29.088Z,15.18
2022-08-28T05:55:27.704Z,15.19
2022-08-28T05:56:27.806Z,15.19
2022-08-28T05:57:27.926Z,15.19
2022-08-28T05:58:28.024Z,15.19
2022-08-28T05:59:28.134Z,15.20
2022-08-28T06:00:28.285Z,15.20
2022-08-28T06:01:28.589Z,15.20
2022-08-28T06:02:28.449Z,15.21
2022-08-28T06:03:28.545Z,15.22
2022-08-28T06:04:28.729Z,15.24
2022-08-28T06:05:28.894Z,15.26
2022-08-28T06:06:28.884Z,15.29
2022-08-28T06:07:29.054Z,15.29
2022-08-28T06:08:29.153Z,15.30
2022-08-28T06:09:30.105Z,15.30
2022-08-28T06:10:29.437Z,15.30
2022-08-28T06:11:30.677Z,15.30
2022-08-28T06:12:29.613Z,15.31
2022-08-28T06:13:29.723Z,15.32
2022-08-28T06:14:29.848Z,15.33
2022-08-28T06:15:30.055Z,15.35
2022-08-28T06:16:30.110Z,15.35
2022-08-28T06:17:30.181Z,15.36
2022-08-28T06:18:30.360Z,15.38
2022-08-28T06:19:30.461Z,15.41
2022-08-28T06:20:30.672Z,15.45
2022-08-28T06:21:30.772Z,15.48
2022-08-28T06:22:30.759Z,15.49
2022-08-28T06:23:30.922Z,15.50
2022-08-28T06:24:31.021Z,15.52
2022-08-28T06:25:31.333Z,15.53
2022-08-28T06:26:31.314Z,15.53
2022-08-28T06:27:31.353Z,15.53
2022-08-28T06:28:31.530Z,15.54
2022-08-28T06:29:31.650Z,15.56
2022-08-28T06:30:31.768Z,15.59
2022-08-28T06:31:33.500Z,15.62
2022-08-28T06:32:32.127Z,15.64
2022-08-28T06:33:32.119Z,15.66
2022-08-28T06:34:32.209Z,15.66
2022-08-28T06:35:32.439Z,15.67
2022-08-28T06:36:32.569Z,15.68
2022-08-28T06:37:32.556Z,15.69
2022-08-28T06:38:32.736Z,15.72
2022-08-28T06:39:32.838Z,15.75
2022-08-28T06:40:33.138Z,15.78
2022-08-28T06:41:33.209Z,15.80
2022-08-28T06:42:33.377Z,15.81
2022-08-28T06:43:33.337Z,15.82
2022-08-28T06:44:33.458Z,15.84
2022-08-28T06:45:33.659Z,15.87
2022-08-28T06:46:33.707Z,15.91
2022-08-28T06:47:33.991Z,15.93
2022-08-28T06:48:33.997Z,15.95
2022-08-28T06:49:34.116Z,15.98
2022-08-28T06:50:34.247Z,16.00
2022-08-28T06:51:34.574Z,16.03
2022-08-28T06:52:34.495Z,16.08
2022-08-28T06:53:34.596Z,16.14
2022-08-28T06:54:34.696Z,16.18
2022-08-28T06:55:34.855Z,16.21
2022-08-28T06:56:35.026Z,16.24
2022-08-28T06:57:35.175Z,16.24
2022-08-28T06:58:35.276Z,16.23
2022-08-28T06:59:35.374Z,16.22
2022-08-28T07:00:35.487Z,16.23
2022-08-28T07:01:35.725Z,16.23
2022-08-28T07:02:35.815Z,16.23
2022-08-28T07:03:35.835Z,16.23
2022-08-28T07:04:36.943Z,16.25
2022-08-28T07:05:36.274Z,16.27
2022-08-28T07:06:36.213Z,16.29
2022-08-28T07:07:36.324Z,16.32
2022-08-28T07:08:36.443Z,16.36
2022-08-28T07:09:36.544Z,16.42
2022-08-28T07:10:36.978Z,16.48
2022-08-28T07:11:36.824Z,16.52
2022-08-28T07:12:36.922Z,16.57
2022-08-28T07:13:37.043Z,16.62
2022-08-28T07:14:37.154Z,16.70
2022-08-28T07:15:37.583Z,16.83
2022-08-28T07:16:37.423Z,16.96
2022-08-28T07:17:37.533Z,17.12
2022-08-28T07:18:37.638Z,17.32
2022-08-28T07:19:37.807Z,17.57
2022-08-28T07:20:37.872Z,17.88
2022-08-28T07:21:39.306Z,18.20
2022-08-28T07:22:38.091Z,18.47
2022-08-28T07:23:38.226Z,18.66
2022-08-28T07:24:38.324Z,18.79
2022-08-28T07:25:38.551Z,18.92
2022-08-28T07:26:38.672Z,19.02
2022-08-28T07:27:38.671Z,19.05
2022-08-28T07:28:38.772Z,19.03
2022-08-28T07:29:38.903Z,18.99
2022-08-28T07:30:39.770Z,18.92
2022-08-28T07:31:39.222Z,18.83
2022-08-28T07:32:39.251Z,18.76
2022-08-28T07:33:39.358Z,18.72
2022-08-28T07:34:39.472Z,18.68
2022-08-28T07:35:39.550Z,18.66
2022-08-28T07:36:39.786Z,18.63
2022-08-28T07:37:40.866Z,18.56
2022-08-28T07:38:40.022Z,18.50
2022-08-28T07:39:40.130Z,18.44
2022-08-28T07:40:40.194Z,18.37
2022-08-28T07:41:40.550Z,18.32
2022-08-28T07:42:40.451Z,18.28
2022-08-28T07:43:40.560Z,18.24
2022-08-28T07:44:40.662Z,18.19
2022-08-28T07:45:40.791Z,18.12
2022-08-28T07:46:40.993Z,18.05
2022-08-28T07:47:41.121Z,17.99
2022-08-28T07:48:41.112Z,17.95
2022-08-28T07:49:41.229Z,17.91
2022-08-28T07:50:41.446Z,17.87
2022-08-28T07:51:41.440Z,17.88
2022-08-28T07:52:41.660Z,18.00
2022-08-28T07:53:41.678Z,18.20
2022-08-28T07:54:41.777Z,18.44
2022-08-28T07:55:41.888Z,18.65
2022-08-28T07:56:41.998Z,18.84
2022-08-28T07:57:42.138Z,19.06
2022-08-28T07:58:42.418Z,19.23
2022-08-28T07:59:42.500Z,19.30
2022-08-28T08:00:42.509Z,19.28
2022-08-28T08:01:42.696Z,19.21
2022-08-28T08:02:42.878Z,19.11
2022-08-28T08:03:42.904Z,19.01
2022-08-28T08:04:42.995Z,18.95
2022-08-28T08:05:43.138Z,18.94
2022-08-28T08:06:43.248Z,18.96
2022-08-28T08:07:43.768Z,18.97
2022-08-28T08:08:43.598Z,18.96
2022-08-28T08:09:43.594Z,18.98
2022-08-28T08:10:43.908Z,19.05
2022-08-28T08:11:43.878Z,19.14
2022-08-28T08:12:44.038Z,19.19
2022-08-28T08:13:44.117Z,19.22
2022-08-28T08:14:44.257Z,19.23
2022-08-28T08:15:44.523Z,19.24
2022-08-28T08:16:44.487Z,19.22
2022-08-28T08:17:44.604Z,19.15
2022-08-28T08:18:44.707Z,19.11
2022-08-28T08:19:44.864Z,19.18
2022-08-28T08:20:45.146Z,19.34
2022-08-28T08:21:45.025Z,19.57
2022-08-28T08:22:45.185Z,19.76
2022-08-28T08:23:45.305Z,19.84
2022-08-28T08:24:45.405Z,19.87
2022-08-28T08:25:45.697Z,19.95
2022-08-28T08:26:50.096Z,20.07
2022-08-28T08:27:46.771Z,20.25
2022-08-28T08:28:45.866Z,20.48
2022-08-28T08:29:45.965Z,20.73
2022-08-28T08:30:46.244Z,21.00
2022-08-28T08:31:46.283Z,21.25
2022-08-28T08:32:46.376Z,21.47
2022-08-28T08:33:46.487Z,21.62
2022-08-28T08:34:46.602Z,21.69
2022-08-28T08:35:46.777Z,21.72
2022-08-28T08:36:46.826Z,21.77
2022-08-28T08:37:46.948Z,21.79
2022-08-28T08:38:47.025Z,21.79
2022-08-28T08:39:47.176Z,21.70
2022-08-28T08:40:47.349Z,21.54
2022-08-28T08:41:47.449Z,21.40
2022-08-28T08:42:47.488Z,21.28
2022-08-28T08:43:47.599Z,21.18
2022-08-28T08:44:47.714Z,21.19
2022-08-28T08:45:47.924Z,21.30
2022-08-28T08:46:47.914Z,21.47
2022-08-28T08:47:48.017Z,21.69
2022-08-28T08:48:48.153Z,21.92
2022-08-28T08:49:48.254Z,22.11
2022-08-28T08:50:48.542Z,22.23
2022-08-28T08:51:48.518Z,22.35
2022-08-28T08:52:49.594Z,22.49
2022-08-28T08:53:48.773Z,22.53
2022-08-28T08:54:48.875Z,22.49
2022-08-28T08:55:49.164Z,22.44
2022-08-28T08:56:49.212Z,22.31
2022-08-28T08:57:49.594Z,22.12
2022-08-28T08:58:49.314Z,21.86
2022-08-28T08:59:49.421Z,21.59
2022-08-28T09:00:49.926Z,21.44
2022-08-28T09:01:49.704Z,21.41
2022-08-28T09:02:49.776Z,21.47
2022-08-28T09:03:49.998Z,21.59
2022-08-28T09:04:50.032Z,21.73
2022-08-28T09:05:50.246Z,21.83
2022-08-28T09:06:50.394Z,21.87
2022-08-28T09:07:53.216Z,21.85
2022-08-28T09:08:50.492Z,21.81
2022-08-28T09:09:50.601Z,21.80
2022-08-28T09:10:50.822Z,21.87
2022-08-28T09:11:52.187Z,22.00
2022-08-28T09:12:51.973Z,22.07
2022-08-28T09:13:51.092Z,22.12
2022-08-28T09:14:51.195Z,22.20
2022-08-28T09:15:51.469Z,22.32
2022-08-28T09:16:51.383Z,22.35
2022-08-28T09:17:51.483Z,22.23
2022-08-28T09:18:51.639Z,22.15
2022-08-28T09:19:51.817Z,22.18
2022-08-28T09:20:51.983Z,22.19
2022-08-28T09:21:51.983Z,22.14
2022-08-28T09:22:52.152Z,22.12
2022-08-28T09:23:52.282Z,22.16
2022-08-28T09:24:52.331Z,22.18
2022-08-28T09:25:52.450Z,22.19
2022-08-28T09:26:52.611Z,22.21
2022-08-28T09:27:52.863Z,22.16
2022-08-28T09:28:52.870Z,22.11
2022-08-28T09:29:52.972Z,22.09
2022-08-28T09:30:53.139Z,22.13
2022-08-28T09:31:53.250Z,22.22
2022-08-28T09:32:53.441Z,22.31
2022-08-28T09:33:53.502Z,22.34
2022-08-28T09:34:53.722Z,22.32
2022-08-28T09:35:53.713Z,22.29
2022-08-28T09:36:53.873Z,22.32
2022-08-28T09:37:53.968Z,22.40
2022-08-28T09:38:54.139Z,22.45
2022-08-28T09:39:54.377Z,22.51
2022-08-28T09:40:54.360Z,22.52
2022-08-28T09:41:54.450Z,22.44
2022-08-28T09:42:54.601Z,22.32
2022-08-28T09:43:54.700Z,22.26
2022-08-28T09:44:54.850Z,22.25
2022-08-28T09:45:55.049Z,22.23
2022-08-28T09:46:55.071Z,22.21
2022-08-28T09:47:55.229Z,22.24
2022-08-28T09:48:55.349Z,22.24
2022-08-28T09:49:55.629Z,22.19
2022-08-28T09:50:55.570Z,22.11
2022-08-28T09:51:55.729Z,22.04
2022-08-28T09:52:55.839Z,22.09
2022-08-28T09:53:55.939Z,22.19
2022-08-28T09:54:56.188Z,22.26
2022-08-28T09:55:56.280Z,22.34
2022-08-28T09:56:56.336Z,22.45
2022-08-28T09:57:56.438Z,22.54
2022-08-28T09:58:56.558Z,22.58
2022-08-28T09:59:56.973Z,22.65
2022-08-28T10:00:56.810Z,22.75
2022-08-28T10:01:56.978Z,22.85
2022-08-28T10:02:57.048Z,22.83
2022-08-28T10:03:57.205Z,22.79
2022-08-28T10:04:57.448Z,22.82
2022-08-28T10:05:57.377Z,22.84
2022-08-28T10:06:57.528Z,22.76
2022-08-28T10:07:57.687Z,22.66
2022-08-28T10:08:57.805Z,22.63
2022-08-28T10:09:57.987Z,22.56
2022-08-28T10:10:58.118Z,22.50
2022-08-28T10:11:58.160Z,22.45
2022-08-28T10:12:58.327Z,22.37
2022-08-28T10:13:58.429Z,22.34
2022-08-28T10:14:58.559Z,22.40
2022-08-28T10:15:58.826Z,22.55
2022-08-28T10:16:58.756Z,22.75
2022-08-28T10:17:58.920Z,22.91
2022-08-28T10:18:59.036Z,22.95
2022-08-28T10:19:59.156Z,22.90
2022-08-28T10:20:59.386Z,22.84
2022-08-28T10:21:59.386Z,22.77
2022-08-28T10:22:59.516Z,22.71
2022-08-28T10:23:59.635Z,22.69
2022-08-28T10:24:59.743Z,22.71
2022-08-28T10:25:59.836Z,22.75
2022-08-28T10:26:59.975Z,22.82
2022-08-28T10:28:00.175Z,22.97
2022-08-28T10:29:00.182Z,23.17
2022-08-28T10:30:05.158Z,23.30
2022-08-28T10:31:01.437Z,23.36
2022-08-28T10:32:00.546Z,23.37
2022-08-28T10:33:00.722Z,23.36
2022-08-28T10:34:00.926Z,23.30
2022-08-28T10:35:00.925Z,23.16
2022-08-28T10:36:01.024Z,23.00
2022-08-28T10:37:01.184Z,22.88
2022-08-28T10:38:01.455Z,22.79
2022-08-28T10:39:01.404Z,22.65
2022-08-28T10:40:01.633Z,22.54
2022-08-28T10:41:01.664Z,22.59
2022-08-28T10:42:01.773Z,22.70
2022-08-28T10:43:02.013Z,22.83
2022-08-28T10:44:02.003Z,22.96
2022-08-28T10:45:02.163Z,23.10
2022-08-28T10:46:02.266Z,23.16
2022-08-28T10:47:02.371Z,23.16
2022-08-28T10:48:02.462Z,23.15
2022-08-28T10:49:02.622Z,23.19
2022-08-28T10:50:02.883Z,23.28
2022-08-28T10:51:02.853Z,23.36
2022-08-28T10:52:02.936Z,23.47
2022-08-28T10:53:03.048Z,23.51
2022-08-28T10:54:03.219Z,23.52
2022-08-28T10:55:03.402Z,23.49
2022-08-28T10:56:03.453Z,23.44
2022-08-28T10:57:03.581Z,23.39
2022-08-28T10:58:03.701Z,23.29
2022-08-28T10:59:03.822Z,23.17
2022-08-28T11:00:04.033Z,23.17
2022-08-28T11:01:04.237Z,23.31
2022-08-28T11:02:04.157Z,23.47
2022-08-28T11:03:04.369Z,23.61
2022-08-28T11:04:04.419Z,23.73
2022-08-28T11:05:04.685Z,23.79
2022-08-28T11:06:04.632Z,23.85
2022-08-28T11:07:04.731Z,23.97
2022-08-28T11:08:04.882Z,24.07
2022-08-28T11:09:05.030Z,24.03
2022-08-28T11:10:05.202Z,23.94
2022-08-28T11:11:05.270Z,23.89
2022-08-28T11:12:05.400Z,23.90
2022-08-28T11:13:05.609Z,23.88
2022-08-28T11:14:05.619Z,23.88
2022-08-28T11:15:05.850Z,23.92
2022-08-28T11:16:05.879Z,23.92
2022-08-28T11:17:06.054Z,23.88
2022-08-28T11:18:06.159Z,23.74
2022-08-28T11:19:06.278Z,23.55
2022-08-28T11:20:06.449Z,23.41
2022-08-28T11:21:06.457Z,23.31
2022-08-28T11:22:06.559Z,23.25
2022-08-28T11:23:06.733Z,23.26
2022-08-28T11:24:06.809Z,23.33
2022-08-28T11:25:09.777Z,23.39
2022-08-28T11:26:07.008Z,23.50
2022-08-28T11:27:07.119Z,23.66
2022-08-28T11:28:07.217Z,23.81
2022-08-28T11:29:07.376Z,23.91
2022-08-28T11:30:07.529Z,24.02
2022-08-28T11:31:07.779Z,24.17
2022-08-28T11:32:07.698Z,24.33
2022-08-28T11:33:07.811Z,24.38
2022-08-28T11:34:07.926Z,24.27
2022-08-28T11:35:08.117Z,24.09
2022-08-28T11:36:08.335Z,23.96
2022-08-28T11:37:08.297Z,23.97
2022-08-28T11:38:08.417Z,24.07
2022-08-28T11:39:08.577Z,24.17
2022-08-28T11:40:09.120Z,24.22
2022-08-28T11:41:08.827Z,24.28
2022-08-28T11:42:08.955Z,24.40
2022-08-28T11:43:09.194Z,24.57
2022-08-28T11:44:09.246Z,24.73
2022-08-28T11:45:09.606Z,24.82
2022-08-28T11:46:09.515Z,24.90
2022-08-28T11:47:09.547Z,25.03
2022-08-28T11:48:09.687Z,25.14
2022-08-28T11:49:09.854Z,25.20
2022-08-28T11:50:09.996Z,25.22
2022-08-28T11:51:10.236Z,25.21
2022-08-28T11:52:10.232Z,25.14
2022-08-28T11:53:10.405Z,25.09
2022-08-28T11:54:10.535Z,25.12
2022-08-28T11:55:10.746Z,25.18
2022-08-28T11:56:10.755Z,25.20
2022-08-28T11:57:10.864Z,25.23
2022-08-28T11:58:46.586Z,26.14
2022-08-28T11:59:46.676Z,25.60
2022-08-28T12:00:46.916Z,25.20
2022-08-28T12:01:46.978Z,24.99
2022-08-28T12:02:47.215Z,24.90
2022-08-28T12:03:47.207Z,24.91
2022-08-28T12:04:47.371Z,25.00
2022-08-28T12:05:47.496Z,25.12
2022-08-28T12:06:47.556Z,25.11
2022-08-28T12:07:47.651Z,24.98
2022-08-28T12:08:47.796Z,24.85
2022-08-28T12:09:47.957Z,24.67
2022-08-28T12:10:48.134Z,24.46
2022-08-28T12:11:48.285Z,24.32
2022-08-28T12:12:48.335Z,24.33
2022-08-28T12:13:48.437Z,24.48
2022-08-28T12:14:48.595Z,24.61
2022-08-28T12:15:48.819Z,24.67
2022-08-28T12:16:48.821Z,24.66
2022-08-28T12:17:48.907Z,24.61
2022-08-28T12:18:49.075Z,24.55
2022-08-28T12:19:55.373Z,24.54
2022-08-28T12:20:50.475Z,24.60
2022-08-28T12:21:49.395Z,24.71
2022-08-28T12:22:49.545Z,24.80
2022-08-28T12:23:49.715Z,24.82
2022-08-28T12:24:49.805Z,24.79
2022-08-28T12:25:49.975Z,24.83
2022-08-28T12:26:50.174Z,24.97
2022-08-28T12:27:50.165Z,25.15
2022-08-28T12:28:50.278Z,25.37
2022-08-28T12:29:50.394Z,25.53
2022-08-28T12:30:50.541Z,25.59
2022-08-28T12:31:50.634Z,25.54
2022-08-28T12:32:50.726Z,25.39
2022-08-28T12:33:50.897Z,25.21
2022-08-28T12:34:51.031Z,25.11
2022-08-28T12:35:51.135Z,25.11
2022-08-28T12:36:52.168Z,25.08
2022-08-28T12:37:53.275Z,25.03
2022-08-28T12:38:51.464Z,25.01
2022-08-28T12:39:51.555Z,25.05
2022-08-28T12:40:51.643Z,25.11
2022-08-28T12:41:51.793Z,25.11
2022-08-28T12:42:55.036Z,25.07
2022-08-28T12:43:52.193Z,25.00
2022-08-28T12:44:52.194Z,24.96
2022-08-28T12:45:52.323Z,24.95
2022-08-28T12:46:52.431Z,24.92
2022-08-28T12:47:52.708Z,24.87
2022-08-28T12:48:52.677Z,24.84
2022-08-28T12:49:52.785Z,24.83
2022-08-28T12:50:52.883Z,24.85
2022-08-28T12:51:53.043Z,24.89
2022-08-28T12:52:53.293Z,24.86
2022-08-28T12:53:53.283Z,24.82
2022-08-28T12:54:53.443Z,24.84